Time;durP1;ratioP1;P1;durP2;ratioP2;P2;SDS_P1;SDS_P2;PMS_P1;PMS_P2;Temp;Humidity;BMP_temperature;BMP_pressure;BME280_temperature;BME280_humidity;BME280_pressure;Samples;Min_cycle;Max_cycle;Signal;HPM_P1;HPM_P2
2021/04/26 00:02:00;;;;;;;6.83;3.70;;;8.90;94.30;;;9.61;32.58;94063.59;5075152;28;20225;-69
2021/04/26 00:04:26;;;;;;;5.00;3.53;;;10.00;93.80;;;9.43;33.07;94048.13;5085663;28;20207;-69
2021/04/26 00:06:53;;;;;;;5.97;3.27;;;8.90;93.80;;;9.24;32.83;94060.91;5058294;28;20178;-68
2021/04/26 00:09:21;;;;;;;6.00;3.77;;;8.80;94.00;;;9.19;32.62;94058.25;5074573;28;20210;-69
2021/04/26 00:11:47;;;;;;;6.60;4.30;;;8.70;94.70;;;9.16;33.16;94052.66;5069894;28;20273;-69
2021/04/26 00:14:14;;;;;;;5.63;3.90;;;8.60;94.60;;;9.21;32.63;94053.50;5055816;28;20243;-70
2021/04/26 00:16:40;;;;;;;6.00;4.00;;;8.60;94.60;;;9.11;33.17;94050.75;5041118;28;20227;-70
2021/04/26 00:19:09;;;;;;;5.47;3.80;;;8.50;95.00;;;9.00;32.78;94046.44;5101872;28;20281;-69
2021/04/26 00:21:35;;;;;;;4.97;3.80;;;8.40;95.20;;;8.71;33.01;94045.91;5052257;28;20665;-69
2021/04/26 00:24:01;;;;;;;6.13;3.97;;;8.20;95.20;;;8.58;33.26;94048.13;5075631;28;20339;-69
2021/04/26 00:26:27;;;;;;;4.83;3.70;;;8.10;95.20;;;8.44;33.16;94041.63;5071524;28;20556;-68
2021/04/26 00:28:53;;;;;;;5.87;3.80;;;8.00;95.60;;;8.31;33.03;94045.47;5055740;28;20747;-69
2021/04/26 00:31:23;;;;;;;4.93;3.63;;;7.90;95.80;;;8.25;33.41;94044.59;5066881;28;20187;-69
2021/04/26 00:33:49;;;;;;;4.93;3.40;;;7.80;95.90;;;8.22;33.20;94039.78;5066806;28;20658;-69
2021/04/26 00:36:15;;;;;;;5.23;3.57;;;7.70;95.60;;;8.29;33.58;94031.72;5067855;28;20260;-70
2021/04/26 00:38:42;;;;;;;4.47;3.10;;;7.70;96.00;;;8.40;33.63;94036.03;5089004;28;20281;-69
2021/04/26 00:41:08;;;;;;;7.23;4.00;;;7.80;95.70;;;8.27;33.28;94031.13;5058233;28;20195;-70
2021/04/26 00:43:35;;;;;;;5.93;3.60;;;7.70;95.90;;;8.13;33.63;94029.88;5092043;28;20273;-69
2021/04/26 00:46:01;;;;;;;4.90;3.33;;;7.60;96.20;;;8.06;33.60;94021.34;5078067;28;20708;-69
2021/04/26 00:48:26;;;;;;;8.73;3.57;;;7.50;96.90;;;8.08;34.06;94025.38;5066266;28;20310;-69
2021/04/26 00:50:57;;;;;;;3.63;3.10;;;7.50;96.40;;;8.01;33.92;94026.59;5060731;28;20260;-69
2021/04/26 00:53:27;;;;;;;5.60;3.67;;;7.50;96.40;;;7.88;33.36;94024.31;5075812;28;20182;-71
2021/04/26 00:55:53;;;;;;;5.27;3.20;;;7.40;96.50;;;7.79;34.00;94026.56;5069148;28;20284;-69
2021/04/26 00:58:22;;;;;;;7.03;3.53;;;7.30;96.40;;;7.71;33.85;94027.00;5057272;28;20179;-70
2021/04/26 01:00:51;;;;;;;8.30;3.67;;;7.20;96.70;;;7.62;33.80;94021.31;5087174;28;20977;-70
2021/04/26 01:03:17;;;;;;;5.60;3.03;;;7.10;96.40;;;7.62;33.86;94021.31;5054559;28;20198;-69
2021/04/26 01:05:46;;;;;;;5.27;3.03;;;7.10;96.40;;;7.56;33.48;94011.75;5067568;28;20218;-69
2021/04/26 01:08:14;;;;;;;6.17;3.40;;;7.00;96.60;;;7.72;33.75;94016.19;5062361;28;20190;-69
2021/04/26 01:10:41;;;;;;;4.83;3.97;;;7.10;96.80;;;7.62;34.21;94012.63;5073856;28;20206;-67
2021/04/26 01:13:44;;;;;;;4.10;3.37;;;7.20;97.00;;;7.57;33.51;94018.63;5057987;28;20176;-68
2021/04/26 01:16:48;;;;;;;5.33;2.93;;;7.00;97.20;;;7.58;34.01;94016.78;5064924;28;20336;-67
2021/04/26 01:19:59;;;;;;;5.03;3.57;;;7.00;97.60;;;7.48;33.86;94011.38;4997725;28;20285;-69
2021/04/26 01:23:00;;;;;;;4.90;3.27;;;6.90;97.50;;;7.53;34.02;94012.22;4990846;28;20198;-68
2021/04/26 01:25:29;;;;;;;5.73;3.10;;;6.90;97.50;;;7.43;34.57;94006.00;4991970;28;20296;-68
2021/04/26 01:28:00;;;;;;;4.73;2.80;;;6.90;97.40;;;7.48;34.71;94017.44;4991077;28;20275;-68
2021/04/26 01:30:59;;;;;;;8.07;3.20;;;6.90;97.90;;;7.48;34.37;93999.00;4978484;28;20217;-68
2021/04/26 01:33:33;;;;;;;5.70;3.50;;;6.90;99.40;;;7.43;34.70;94008.66;4974920;28;20645;-68
2021/04/26 01:36:05;;;;;;;5.83;3.90;;;6.80;99.90;;;7.31;34.88;94000.06;4968447;28;20216;-71
2021/04/26 01:38:39;;;;;;;4.47;3.63;;;6.70;99.90;;;7.25;34.47;94008.94;4973444;28;20280;-68
2021/04/26 01:41:10;;;;;;;8.80;6.20;;;6.60;99.90;;;7.14;34.67;94008.78;4977782;28;20201;-68
2021/04/26 01:43:37;;;;;;;6.50;4.33;;;6.80;99.90;;;7.06;34.60;94003.91;4982576;28;20641;-68
2021/04/26 01:46:07;;;;;;;6.80;4.03;;;6.50;99.90;;;7.00;35.00;94002.22;4978440;28;20201;-68
2021/04/26 01:48:41;;;;;;;5.37;3.57;;;6.50;99.90;;;6.96;34.81;93990.56;4990255;28;20224;-68
2021/04/26 01:51:10;;;;;;;6.23;4.33;;;6.50;99.90;;;6.81;35.09;93992.97;4987938;28;20560;-68
2021/04/26 01:53:39;;;;;;;4.63;3.80;;;5.90;99.90;;;6.80;34.73;93993.19;4981523;28;20363;-70
2021/04/26 01:56:10;;;;;;;5.13;3.67;;;6.10;99.90;;;6.72;34.97;93986.47;5069659;28;20225;-67
2021/04/26 01:58:41;;;;;;;6.90;4.00;;;6.30;99.90;;;6.69;34.96;93986.94;5082261;28;20187;-70
2021/04/26 02:01:15;;;;;;;4.73;3.73;;;6.80;99.90;;;6.65;35.60;93985.81;5046704;28;20194;-69
2021/04/26 02:03:51;;;;;;;5.43;4.30;;;6.20;99.90;;;6.59;35.08;93992.03;5054371;28;20172;-68
2021/04/26 02:06:18;;;;;;;7.30;4.27;;;6.50;99.90;;;6.50;35.13;93981.13;5075930;28;20186;-69
2021/04/26 02:08:44;;;;;;;4.50;3.53;;;6.10;99.90;;;6.46;35.56;93987.09;5082543;28;20657;-68
2021/04/26 02:11:14;;;;;;;5.90;3.83;;;6.80;99.90;;;6.44;35.80;93982.06;5081532;28;20691;-68
2021/04/26 02:13:44;;;;;;;5.37;4.07;;;5.90;99.90;;;6.35;35.16;93972.13;5080117;28;20244;-68
2021/04/26 02:16:10;;;;;;;7.63;4.63;;;7.20;99.90;;;6.28;35.55;93982.81;5068640;28;20271;-69
2021/04/26 02:18:38;;;;;;;5.67;4.00;;;5.80;99.90;;;6.21;36.04;93981.38;5090426;28;20201;-69
2021/04/26 02:21:05;;;;;;;5.03;3.97;;;5.70;99.90;;;6.23;35.56;93977.47;5055544;28;20210;-68
2021/04/26 02:23:31;;;;;;;5.10;3.57;;;5.70;99.90;;;6.15;35.81;93983.09;5073876;28;20171;-68
2021/04/26 02:26:04;;;;;;;6.77;4.47;;;5.60;99.90;;;6.08;35.79;93975.34;5051344;28;20225;-68
2021/04/26 02:28:30;;;;;;;7.27;4.30;;;5.50;99.90;;;6.00;35.97;93974.94;5043748;28;20226;-69
2021/04/26 02:30:59;;;;;;;6.47;4.43;;;5.40;99.90;;;6.05;36.20;93988.97;5062273;28;20286;-68
2021/04/26 02:33:31;;;;;;;4.87;3.87;;;5.50;99.90;;;6.13;36.48;93982.53;5075697;28;20461;-70
2021/04/26 02:36:31;;;;;;;5.63;3.80;;;4.50;99.90;;;6.09;36.23;93974.31;5091337;28;20201;-68
2021/04/26 02:39:07;;;;;;;3.77;3.10;;;5.50;99.90;;;5.86;36.49;93969.16;5068263;28;20218;-68
2021/04/26 02:41:40;;;;;;;6.37;4.27;;;5.30;99.90;;;5.73;36.09;93968.56;5056970;28;20216;-70
2021/04/26 02:44:27;;;;;;;5.93;3.47;;;5.50;99.90;;;5.61;36.11;93968.59;5051173;28;20557;-69
2021/04/26 02:47:04;;;;;;;6.23;4.00;;;5.10;99.90;;;5.66;36.35;93966.09;5087322;28;20637;-69
2021/04/26 02:49:34;;;;;;;5.27;4.00;;;5.10;99.90;;;5.49;35.92;93970.47;5096425;28;20209;-69
2021/04/26 02:52:00;;;;;;;4.43;3.97;;;5.00;99.90;;;5.46;35.93;93978.81;5076608;28;20226;-69
2021/04/26 02:54:27;;;;;;;6.17;4.20;;;4.90;99.90;;;5.56;36.07;93981.66;5085061;28;20213;-69
2021/04/26 02:56:57;;;;;;;6.63;4.43;;;5.00;99.90;;;5.68;36.54;93972.69;5064916;28;20677;-69
2021/04/26 02:59:24;;;;;;;7.53;4.17;;;5.10;99.90;;;5.60;36.63;93969.66;5080715;28;20195;-68
2021/04/26 03:01:51;;;;;;;6.03;4.40;;;5.00;99.90;;;5.62;36.57;93967.56;5075493;28;20198;-69
2021/04/26 03:04:20;;;;;;;7.33;3.67;;;5.00;99.90;;;5.54;36.58;93960.06;5086615;28;20170;-69
2021/04/26 03:06:50;;;;;;;5.67;4.10;;;5.00;99.90;;;5.46;36.86;93955.16;5085438;28;20263;-70
2021/04/26 03:09:24;;;;;;;5.40;4.40;;;5.60;99.90;;;5.53;37.11;93947.94;5067826;28;20618;-70
2021/04/26 03:11:54;;;;;;;6.47;4.37;;;5.20;99.90;;;5.52;37.07;93947.16;5056420;28;20171;-70
2021/04/26 03:14:24;;;;;;;5.67;3.87;;;4.90;99.90;;;5.49;36.83;93947.59;5104504;28;20197;-68
2021/04/26 03:16:52;;;;;;;7.50;3.83;;;5.00;99.90;;;5.55;37.14;93938.00;5076120;28;20189;-68
2021/04/26 03:19:20;;;;;;;6.47;3.90;;;5.20;99.90;;;5.53;36.75;93947.94;5054052;28;20197;-67
2021/04/26 03:21:50;;;;;;;7.10;4.07;;;5.00;99.90;;;5.50;37.47;93949.22;5072604;28;20205;-68
2021/04/26 03:24:19;;;;;;;5.87;4.60;;;4.90;99.90;;;5.46;37.04;93936.75;5077047;28;20198;-69
2021/04/26 03:26:50;;;;;;;5.33;3.80;;;4.90;99.90;;;5.54;37.44;93947.69;5063781;28;20946;-68
2021/04/26 03:29:21;;;;;;;6.43;4.20;;;5.00;99.90;;;5.54;37.12;93933.78;5058807;28;20301;-68
2021/04/26 03:31:49;;;;;;;6.57;4.10;;;5.00;99.90;;;5.60;37.53;93943.34;5064591;28;20672;-68
2021/04/26 03:34:17;;;;;;;6.03;3.77;;;5.00;99.90;;;5.62;37.47;93941.28;5078629;28;20209;-69
2021/04/26 03:36:46;;;;;;;7.27;3.90;;;5.20;99.90;;;5.57;37.29;93949.84;5076069;28;20208;-70
2021/04/26 03:39:17;;;;;;;6.53;3.73;;;5.00;99.90;;;5.62;37.67;93949.97;5094966;28;20190;-68
2021/04/26 03:41:44;;;;;;;6.10;3.70;;;5.10;99.90;;;5.63;38.15;93948.94;5093346;28;20202;-68
2021/04/26 03:44:16;;;;;;;6.53;4.10;;;5.20;99.90;;;5.72;37.79;93953.81;5078773;28;20191;-69
2021/04/26 03:47:04;;;;;;;5.00;3.70;;;5.10;99.90;;;5.73;37.52;93940.47;5069313;28;20209;-68
2021/04/26 03:49:33;;;;;;;4.50;3.47;;;5.30;99.90;;;5.67;37.93;93938.78;5074518;28;20297;-69
2021/04/26 03:52:01;;;;;;;7.13;3.70;;;5.20;99.90;;;5.76;37.91;93942.63;5078497;28;20201;-69
2021/04/26 03:54:28;;;;;;;4.80;3.27;;;5.20;99.90;;;5.68;38.06;93941.16;5063765;28;20187;-69
2021/04/26 03:56:54;;;;;;;4.77;3.43;;;5.10;99.90;;;5.68;37.93;93941.16;5074913;28;20185;-68
2021/04/26 03:59:20;;;;;;;5.60;3.37;;;5.20;99.90;;;5.63;38.07;93948.94;5094318;28;20640;-68
2021/04/26 04:01:46;;;;;;;6.00;3.53;;;5.10;99.90;;;5.54;37.93;93952.94;5096596;28;20667;-69
2021/04/26 04:04:12;;;;;;;6.77;3.50;;;5.10;99.90;;;5.61;38.22;93947.56;5075952;28;20177;-69
2021/04/26 04:06:39;;;;;;;3.97;3.20;;;5.10;99.90;;;5.63;37.98;93940.25;5072236;28;20192;-67
2021/04/26 04:09:09;;;;;;;4.83;3.33;;;5.10;99.90;;;5.53;38.12;93940.88;5073239;28;20205;-67
2021/04/26 04:11:37;;;;;;;6.83;3.93;;;5.10;99.90;;;5.56;38.37;93939.59;5054313;28;20236;-68
2021/04/26 04:14:06;;;;;;;9.47;3.90;;;5.10;99.90;;;5.71;38.37;93934.63;5075005;28;20569;-68
2021/04/26 04:16:35;;;;;;;5.53;3.70;;;5.20;99.90;;;5.76;38.25;93945.25;5090855;28;20185;-68
2021/04/26 04:19:02;;;;;;;6.83;3.60;;;5.20;99.90;;;5.78;38.44;93939.75;5075916;28;20714;-69
2021/04/26 04:21:28;;;;;;;5.13;3.30;;;5.20;99.90;;;5.71;38.62;93944.38;5038907;28;20195;-68
2021/04/26 04:23:54;;;;;;;4.67;3.80;;;5.20;99.90;;;5.66;38.51;93942.44;5057502;28;20191;-68
2021/04/26 04:26:20;;;;;;;6.70;3.80;;;5.20;99.90;;;5.67;38.57;93942.19;5078235;28;20201;-69
2021/04/26 04:28:47;;;;;;;4.20;3.37;;;5.20;99.90;;;5.67;38.69;93933.50;5055664;28;20282;-69
2021/04/26 04:31:13;;;;;;;5.00;3.20;;;5.20;99.90;;;5.60;38.44;93943.34;5063172;28;20210;-68
2021/04/26 04:33:39;;;;;;;8.73;4.03;;;5.10;99.90;;;5.52;38.58;93938.44;5076473;28;20236;-69
2021/04/26 04:36:06;;;;;;;6.63;4.47;;;5.10;99.90;;;5.46;38.87;93945.44;5058600;28;20718;-69
2021/04/26 04:38:34;;;;;;;7.40;4.40;;;5.00;99.90;;;5.43;38.58;93950.38;5068853;28;20223;-68
2021/04/26 04:41:00;;;;;;;5.40;4.53;;;5.10;99.90;;;5.48;38.82;93955.72;5081522;28;20198;-70
2021/04/26 04:43:26;;;;;;;6.50;4.00;;;4.70;99.90;;;5.46;38.40;93953.34;5095130;28;20198;-68
2021/04/26 04:45:52;;;;;;;6.13;4.50;;;5.00;99.90;;;5.56;38.78;93953.53;5074564;28;20206;-68
2021/04/26 04:48:19;;;;;;;7.43;4.17;;;5.00;99.90;;;5.52;39.37;93962.09;5061748;28;20187;-68
2021/04/26 04:50:45;;;;;;;7.50;4.13;;;4.90;99.90;;;5.76;39.11;93963.66;5085726;28;20207;-69
2021/04/26 04:53:11;;;;;;;6.57;4.43;;;6.60;99.90;;;5.78;39.17;93971.28;5060663;28;20189;-69
2021/04/26 04:55:37;;;;;;;6.80;4.20;;;5.10;99.90;;;5.82;39.22;93967.16;5094023;28;20619;-70
2021/04/26 04:58:03;;;;;;;6.50;3.73;;;5.20;99.90;;;5.85;39.19;93972.78;5038021;28;20270;-69
2021/04/26 05:00:29;;;;;;;5.77;3.93;;;5.20;99.90;;;5.87;39.38;93965.50;5078179;28;20224;-69
2021/04/26 05:02:55;;;;;;;8.97;4.40;;;5.30;99.90;;;6.00;39.51;93978.38;5101902;28;20651;-69
2021/04/26 05:05:21;;;;;;;6.37;3.80;;;5.40;99.90;;;6.13;39.37;93974.66;5058098;28;20166;-68
2021/04/26 05:07:47;;;;;;;6.43;3.73;;;5.50;99.90;;;6.23;39.89;93974.84;5089174;28;20291;-70
2021/04/26 05:10:16;;;;;;;7.60;4.00;;;5.60;99.90;;;6.48;39.37;93980.53;5059676;28;20573;-69
2021/04/26 05:12:42;;;;;;;6.33;3.90;;;5.80;99.90;;;6.56;39.12;93968.81;5054029;28;20214;-71
2021/04/26 05:15:12;;;;;;;6.97;3.90;;;5.90;99.90;;;6.75;39.39;93972.81;5080267;28;20273;-69
2021/04/26 05:17:38;;;;;;;4.37;3.30;;;6.10;99.90;;;6.92;39.73;93973.63;5070085;28;20214;-69
2021/04/26 05:20:05;;;;;;;5.53;3.13;;;6.30;99.90;;;7.19;40.03;93977.22;5087987;28;20595;-71
2021/04/26 05:22:34;;;;;;;5.37;3.50;;;6.50;99.90;;;7.45;39.93;93986.31;5072793;28;20238;-69
2021/04/26 05:25:05;;;;;;;6.30;3.07;;;6.80;99.90;;;7.57;39.83;93981.72;5053539;28;20634;-69
2021/04/26 05:27:31;;;;;;;6.83;3.20;;;6.90;99.90;;;7.85;39.55;93969.41;5086811;28;20272;-69
2021/04/26 05:29:59;;;;;;;6.87;3.57;;;7.20;99.90;;;8.02;39.73;93972.78;5087597;28;20210;-70
2021/04/26 05:32:25;;;;;;;5.50;3.97;;;7.40;99.90;;;8.31;39.31;93960.16;5076315;28;20186;-70
2021/04/26 05:34:51;;;;;;;5.30;3.97;;;7.70;99.90;;;8.42;39.76;93959.22;5092291;28;20612;-70
2021/04/26 05:37:17;;;;;;;7.07;3.50;;;7.90;99.90;;;8.59;39.43;93967.84;5079749;28;20190;-68
2021/04/26 05:39:42;;;;;;;5.67;3.13;;;8.00;99.90;;;8.79;39.75;93968.03;5072509;28;20187;-69
2021/04/26 05:42:08;;;;;;;7.30;3.17;;;8.30;99.90;;;9.03;39.97;93960.56;5037342;28;20591;-68
2021/04/26 05:44:34;;;;;;;6.57;3.10;;;8.50;99.90;;;9.14;40.16;93973.59;5087498;28;20187;-69
2021/04/26 05:47:00;;;;;;;3.80;3.20;;;8.60;99.90;;;9.14;40.56;93955.06;5058107;28;20186;-69
2021/04/26 05:49:26;;;;;;;6.43;3.00;;;8.70;99.90;;;9.33;40.61;93962.63;5078221;28;20214;-70
2021/04/26 05:51:52;;;;;;;5.07;3.27;;;8.90;99.90;;;9.51;40.21;93957.69;5092188;28;20296;-68
2021/04/26 05:54:18;;;;;;;4.67;2.90;;;9.10;99.90;;;9.49;40.39;93959.81;5080837;28;20313;-69
2021/04/26 05:56:44;;;;;;;5.77;2.97;;;9.10;99.90;;;9.59;40.55;93972.28;5083336;28;20241;-68
2021/04/26 05:59:11;;;;;;;7.50;4.50;;;9.20;99.90;;;9.71;39.80;93970.22;5112139;28;20176;-70
2021/04/26 06:01:37;;;;;;;5.33;4.23;;;9.40;99.90;;;9.63;39.92;93957.50;5089035;28;20182;-69
2021/04/26 06:04:06;;;;;;;5.57;3.93;;;9.30;99.90;;;9.85;40.23;93974.00;5072698;28;20185;-69
2021/04/26 06:06:32;;;;;;;4.63;3.17;;;9.40;99.90;;;10.11;40.30;93964.31;5088848;28;20228;-70
2021/04/26 06:08:58;;;;;;;6.63;3.30;;;9.70;99.90;;;10.16;39.86;93964.38;5090707;28;20655;-73
2021/04/26 06:11:24;;;;;;;6.00;3.57;;;9.90;99.90;;;10.23;40.01;93972.88;5112140;28;20205;-68
2021/04/26 06:13:50;;;;;;;5.63;3.60;;;9.90;99.90;;;10.26;40.24;93959.91;5066176;28;20198;-68
2021/04/26 06:16:18;;;;;;;5.87;3.20;;;10.00;99.90;;;10.31;40.28;93974.22;5080342;28;20642;-69
2021/04/26 06:18:44;;;;;;;6.30;3.73;;;10.00;99.90;;;10.55;40.22;93980.63;5072461;28;20192;-68
2021/04/26 06:21:10;;;;;;;5.97;3.20;;;10.30;99.90;;;10.53;40.26;93978.25;5091088;28;20289;-68
2021/04/26 06:23:36;;;;;;;5.53;3.10;;;10.30;99.90;;;10.60;40.21;93976.16;5083306;28;20191;-67
2021/04/26 06:26:02;;;;;;;5.10;3.10;;;10.30;99.90;;;10.72;39.81;93976.69;5076629;28;20191;-69
2021/04/26 06:28:30;;;;;;;8.63;3.33;;;10.40;99.90;;;10.86;40.47;93976.97;5070670;28;20254;-68
2021/04/26 06:30:56;;;;;;;9.50;3.90;;;10.60;99.90;;;11.02;40.10;93972.47;5084251;28;20213;-69
2021/04/26 06:33:23;;;;;;;10.47;5.10;;;10.70;99.90;;;11.07;40.31;93967.97;5090851;28;20159;-68
2021/04/26 06:35:54;;;;;;;5.10;2.87;;;10.80;99.90;;;11.46;40.20;93983.31;5095714;28;20828;-68
2021/04/26 06:38:23;;;;;;;3.93;2.90;;;11.10;99.90;;;11.87;40.23;93990.19;5075612;28;20239;-68
2021/04/26 06:40:52;;;;;;;5.50;2.97;;;11.60;99.40;;;12.29;40.62;93968.50;5084593;28;20193;-68
2021/04/26 06:43:18;;;;;;;7.83;2.87;;;12.00;97.60;;;12.47;40.21;93962.59;5058581;28;20200;-68
2021/04/26 06:45:45;;;;;;;5.97;3.50;;;12.20;97.00;;;12.78;40.42;93961.34;5056489;28;20640;-69
2021/04/26 06:48:18;;;;;;;7.50;3.93;;;12.60;95.30;;;12.84;40.25;93973.53;5100211;28;20188;-68
2021/04/26 06:50:47;;;;;;;8.43;3.10;;;12.70;94.60;;;12.94;40.50;93975.31;5068762;28;20219;-67
2021/04/26 06:53:13;;;;;;;6.63;3.30;;;12.80;93.40;;;13.22;40.50;93973.81;5063882;28;20210;-68
2021/04/26 06:55:39;;;;;;;4.23;3.00;;;13.10;92.80;;;13.46;40.12;93960.56;5091432;28;20179;-68
2021/04/26 06:58:05;;;;;;;5.90;3.47;;;13.40;92.50;;;13.38;40.03;93969.94;5077626;28;20760;-68
2021/04/26 07:00:35;;;;;;;5.07;3.13;;;13.40;91.50;;;13.69;40.25;93973.94;5057251;28;20194;-67
2021/04/26 07:03:01;;;;;;;6.57;3.73;;;13.60;91.60;;;13.84;40.14;93962.31;5079375;28;20224;-69
2021/04/26 07:05:27;;;;;;;7.60;3.20;;;13.80;90.30;;;13.67;40.39;93941.44;5061216;28;20200;-69
2021/04/26 07:07:53;;;;;;;4.40;3.13;;;13.70;90.80;;;13.50;40.29;93954.38;5111246;28;20742;-68
2021/04/26 07:10:19;;;;;;;6.13;3.37;;;13.50;91.00;;;13.91;40.45;93975.28;5059932;28;20273;-67
2021/04/26 07:12:46;;;;;;;8.90;3.60;;;13.80;90.00;;;14.26;40.36;93969.56;5103447;28;20182;-69
2021/04/26 07:15:15;;;;;;;5.17;3.20;;;14.20;89.50;;;14.68;40.40;93944.78;5077006;28;20185;-68
2021/04/26 07:17:43;;;;;;;4.07;3.10;;;14.60;88.70;;;15.45;40.84;93934.50;5074408;28;20197;-69
2021/04/26 07:20:13;;;;;;;5.43;3.50;;;15.40;85.40;;;15.98;40.25;93977.69;5075356;28;20253;-68
2021/04/26 07:22:44;;;;;;;6.33;3.17;;;16.00;83.70;;;16.85;40.16;93992.50;5096096;28;20191;-68
2021/04/26 07:25:13;;;;;;;7.37;3.50;;;16.80;79.30;;;16.99;40.10;93973.75;5057746;28;20237;-69
2021/04/26 07:27:43;;;;;;;5.47;3.53;;;17.20;77.10;;;17.41;40.11;93956.44;5089900;28;20178;-68
2021/04/26 07:30:10;;;;;;;4.63;3.47;;;17.70;73.40;;;17.20;40.12;93974.88;5066690;28;20210;-68
2021/04/26 07:32:36;;;;;;;4.93;3.30;;;17.60;73.90;;;17.64;40.00;93976.78;5065135;28;20198;-67
2021/04/26 07:35:05;;;;;;;6.97;3.20;;;17.90;73.20;;;18.93;39.76;93974.63;5054421;28;20571;-69
2021/04/26 07:37:31;;;;;;;6.27;3.90;;;19.20;70.90;;;18.38;39.94;93916.06;5075820;28;20181;-68
2021/04/26 07:39:57;;;;;;;4.13;3.60;;;19.10;67.80;;;18.11;39.95;93980.66;5091428;28;20239;-69
2021/04/26 07:42:23;;;;;;;7.00;3.50;;;18.70;69.90;;;18.74;39.59;93923.09;5084195;28;20222;-69
2021/04/26 07:44:49;;;;;;;7.43;3.37;;;19.30;67.30;;;18.53;39.63;93879.97;5072646;28;20207;-69
2021/04/26 07:47:16;;;;;;;4.80;3.50;;;19.60;64.80;;;17.00;39.53;93897.69;5085261;28;20193;-70
2021/04/26 07:49:42;;;;;;;6.40;3.70;;;18.50;64.60;;;16.72;39.20;93952.41;5089040;28;20205;-69
2021/04/26 07:52:08;;;;;;;6.73;3.60;;;17.70;67.40;;;18.30;39.49;94013.41;5093322;28;20201;-70
2021/04/26 07:54:34;;;;;;;7.83;3.60;;;18.50;66.90;;;18.85;39.23;93901.00;5071381;28;20277;-69
2021/04/26 07:57:02;;;;;;;3.73;3.37;;;19.20;66.20;;;18.02;39.14;93907.44;5069723;28;20680;-72
2021/04/26 07:59:30;;;;;;;6.83;4.00;;;18.70;66.00;;;17.65;38.88;93951.56;5085221;28;20265;-67
2021/04/26 08:01:59;;;;;;;8.53;3.50;;;18.30;65.60;;;18.78;39.06;94001.94;5053070;28;20183;-67
2021/04/26 08:04:25;;;;;;;5.70;3.83;;;18.90;65.20;;;19.25;39.10;93968.78;5097295;28;20249;-68
2021/04/26 08:06:51;;;;;;;6.37;3.53;;;19.50;65.30;;;20.44;38.82;93982.38;5071516;28;20296;-67
2021/04/26 08:09:17;;;;;;;4.90;3.30;;;20.80;62.60;;;21.51;38.78;93985.38;5053629;28;20198;-67
2021/04/26 08:11:43;;;;;;;4.43;3.33;;;21.90;61.30;;;22.65;38.84;94014.38;5047410;28;20198;-68
2021/04/26 08:14:09;;;;;;;6.43;3.67;;;23.00;56.70;;;23.14;38.31;93923.22;5076151;28;20189;-69
2021/04/26 08:16:35;;;;;;;6.10;3.87;;;24.00;56.30;;;24.10;38.42;93973.53;5069854;28;20190;-67
2021/04/26 08:19:01;;;;;;;7.80;4.20;;;25.20;55.80;;;24.47;38.55;93980.31;5053415;28;20233;-68
2021/04/26 08:21:29;;;;;;;7.07;4.00;;;25.50;54.10;;;23.65;37.93;93881.03;5060192;28;20195;-68
2021/04/26 08:23:57;;;;;;;5.83;3.73;;;25.40;51.60;;;23.57;37.85;93957.75;5038226;28;20186;-68
2021/04/26 08:26:29;;;;;;;6.63;3.37;;;25.00;52.60;;;24.90;37.66;93949.63;5057130;28;20195;-69
2021/04/26 08:28:55;;;;;;;5.53;3.97;;;25.90;53.70;;;24.90;37.99;93927.94;5062422;28;20186;-69
2021/04/26 08:31:22;;;;;;;5.53;3.77;;;26.40;51.40;;;22.88;37.71;93908.19;5064532;28;20576;-68
2021/04/26 08:33:48;;;;;;;4.17;3.77;;;25.10;51.60;;;24.04;37.24;93964.06;5057826;28;20199;-70
2021/04/26 08:36:15;;;;;;;7.23;4.43;;;25.40;52.60;;;23.89;37.04;93957.50;5096723;28;20233;-67
2021/04/26 08:38:43;;;;;;;5.93;3.80;;;25.20;52.90;;;24.14;37.30;94020.47;5065912;28;20629;-67
2021/04/26 08:41:20;;;;;;;5.23;3.57;;;25.20;52.70;;;25.65;36.83;94019.13;5057626;28;20641;-68
2021/04/26 08:43:49;;;;;;;6.00;4.23;;;26.80;52.20;;;26.71;37.07;93921.34;5059995;28;20197;-67
2021/04/26 08:46:19;;;;;;;5.77;3.63;;;27.80;49.10;;;27.05;36.94;93919.56;5046863;28;20198;-69
2021/04/26 08:48:51;;;;;;;7.00;4.20;;;28.50;48.40;;;26.07;37.06;93949.34;5056532;28;20184;-68
2021/04/26 08:51:19;;;;;;;6.47;3.97;;;28.00;48.20;;;26.56;36.47;93924.22;5019008;28;673377;-71
2021/04/26 08:53:45;;;;;;;5.30;4.03;;;28.40;48.00;;;25.64;36.24;93893.44;5070343;28;20596;-70
2021/04/26 08:56:11;;;;;;;6.27;3.80;;;27.80;47.30;;;24.91;35.49;93921.34;5074340;28;20190;-69
2021/04/26 08:58:40;;;;;;;6.63;4.20;;;26.90;48.00;;;25.08;36.17;93909.34;5063849;28;20187;-67
2021/04/26 09:01:08;;;;;;;4.90;3.77;;;27.00;49.30;;;24.99;36.13;93906.81;5064686;28;20542;-68
2021/04/26 09:03:38;;;;;;;4.67;4.00;;;26.80;48.30;;;24.07;35.45;93859.69;5089365;28;20625;-68
2021/04/26 09:06:10;;;;;;;6.70;4.00;;;26.30;49.80;;;22.41;35.48;93844.97;5098725;27;20241;-67
2021/04/26 09:08:39;;;;;;;6.83;3.97;;;24.90;50.20;;;23.11;35.41;93937.44;5097484;28;20270;-67
2021/04/26 09:11:08;;;;;;;6.30;3.80;;;24.80;51.90;;;22.52;35.21;93920.94;5038510;28;20746;-67
2021/04/26 09:13:45;;;;;;;6.50;4.40;;;24.10;51.50;;;21.77;35.16;93980.50;5072736;28;20171;-66
2021/04/26 09:16:19;;;;;;;8.90;4.37;;;23.30;52.80;;;21.69;35.01;93959.78;5052901;28;20600;-67
2021/04/26 09:18:55;;;;;;;7.70;4.60;;;22.80;54.50;;;21.77;35.09;93914.97;5074620;28;20253;-68
2021/04/26 09:21:44;;;;;;;6.17;4.13;;;22.80;56.60;;;21.33;35.04;93946.16;5059552;28;20186;-68
2021/04/26 09:24:25;;;;;;;7.13;4.13;;;22.40;56.30;;;21.64;34.91;93937.63;5072896;28;20281;-70
2021/04/26 09:27:05;;;;;;;7.23;4.27;;;22.70;56.20;;;21.99;34.71;93930.81;5078484;28;20175;-68
2021/04/26 09:29:33;;;;;;;6.57;4.10;;;22.90;55.80;;;22.54;34.62;93935.69;5082358;28;20248;-68
2021/04/26 09:32:09;;;;;;;8.23;4.47;;;23.30;54.80;;;22.72;34.80;93977.59;5072275;28;20533;-69
2021/04/26 09:34:51;;;;;;;5.87;3.93;;;23.80;54.90;;;23.52;34.76;93979.63;5079463;28;20212;-68
2021/04/26 09:37:27;;;;;;;6.10;4.40;;;24.50;52.90;;;25.31;34.70;93980.78;5055541;28;20265;-68
2021/04/26 09:40:07;;;;;;;6.93;4.47;;;26.40;51.10;;;26.35;34.39;94022.50;5064919;28;20186;-67
2021/04/26 09:42:55;;;;;;;6.40;4.10;;;27.50;51.20;;;27.84;34.06;94007.38;5083282;28;20231;-68
2021/04/26 09:45:35;;;;;;;6.53;4.37;;;29.40;47.10;;;29.30;33.86;93999.53;5062882;28;20193;-71
2021/04/26 09:48:15;;;;;;;4.73;4.00;;;31.40;45.40;;;30.40;33.77;93935.22;5074102;28;20182;-69
2021/04/26 09:51:17;;;;;;;5.67;4.20;;;32.60;44.30;;;30.45;33.29;93940.31;5073911;28;20307;-69
2021/04/26 09:53:43;;;;;;;4.80;4.00;;;33.40;43.50;;;30.78;33.64;93963.03;5083950;28;20234;-68
2021/04/26 09:56:15;;;;;;;6.13;4.57;;;33.90;42.80;;;31.35;33.24;93974.75;5083329;28;20570;-69
2021/04/26 09:58:43;;;;;;;6.17;4.10;;;34.20;41.60;;;31.25;32.80;93841.31;5058459;28;20542;-69
2021/04/26 10:01:12;;;;;;;6.93;4.50;;;34.50;42.20;;;31.38;32.82;93876.13;5062257;28;20266;-69
2021/04/26 10:03:38;;;;;;;6.33;4.70;;;34.50;40.80;;;31.34;32.64;93894.50;5071138;28;20697;-68
2021/04/26 10:06:07;;;;;;;5.17;4.60;;;34.70;40.30;;;30.69;32.70;93834.75;5073494;28;20700;-70
2021/04/26 10:08:33;;;;;;;9.13;4.80;;;34.30;40.00;;;31.18;31.89;93968.13;5059461;28;20711;-69
2021/04/26 10:10:59;;;;;;;4.93;4.40;;;34.00;42.20;;;30.71;32.23;93843.38;5069926;28;20216;-67
2021/04/26 10:13:30;;;;;;;5.97;4.40;;;33.60;42.10;;;30.07;31.84;93861.69;5077419;28;20670;-67
2021/04/26 10:16:03;;;;;;;6.77;4.97;;;33.30;42.80;;;29.93;31.87;93916.34;5076588;28;20638;-68
2021/04/26 10:18:43;;;;;;;8.23;5.20;;;32.90;42.60;;;29.44;31.59;93884.91;5050729;28;20270;-70
2021/04/26 10:21:19;;;;;;;7.30;5.17;;;32.60;42.00;;;29.93;31.15;93897.19;5054849;28;20195;-67
2021/04/26 10:23:50;;;;;;;6.03;5.30;;;32.50;42.00;;;28.75;31.27;93735.94;5081180;28;20269;-69
2021/04/26 10:26:42;;;;;;;5.70;4.83;;;31.80;42.90;;;27.76;31.38;93918.56;5081139;28;20191;-68
2021/04/26 10:29:17;;;;;;;8.33;5.20;;;30.30;45.20;;;27.05;31.06;93853.44;5056524;28;20319;-70
2021/04/26 10:32:13;;;;;;;8.47;5.13;;;29.60;45.30;;;26.12;31.07;93859.41;5056693;28;20625;-66
2021/04/26 10:34:42;;;;;;;7.77;5.03;;;28.50;46.10;;;26.61;30.90;93845.81;5071972;28;20186;-69
2021/04/26 10:37:17;;;;;;;5.97;5.37;;;28.30;47.50;;;26.92;30.90;93877.38;5083975;28;20202;-68
2021/04/26 10:40:01;;;;;;;5.37;4.87;;;28.50;47.80;;;26.76;30.64;93891.09;5074393;28;20209;-68